• Join FlightAware (Why Join?)
  • Login
  • US Flag 
12:28AM EST


 

Airport Tracker/Info


-or-


 

Live Flight TrackerFlight Track Log ✈ RPA3392 ✈ 17-May-2013 ✈ KMSP - KDCA

Flight Track Log - Related Links

Times and Time Zones

All times are in EDT time to prevent confusion due to time zone crossing. See the RPA3392 flight status page for this flight to view local times or setup timezone preferences in your user account.

Time Position Orientation Groundspeed Altitude Reporting Facility
EDT Latitude Longitude Course Direction KTS MPH feet Rate Location/Type
06:06PM 44.8500 -93.2167 117° Southeast 151 174 2,200  Level Minneapolis TRACON
06:06PM 44.8358 -93.1917 129° Southeast 156 180 3,000 1,200 Climbing Minneapolis Center
06:07PM 44.8064 -93.1111 117° Southeast 237 273 4,300 1,800 Climbing Minneapolis Center
06:08PM 44.7502 -92.7417 111° Southeast  Level Estimated
06:08PM 44.7767 -93.0111 113° Southeast 273 314 6,800  Level Minneapolis Center
06:09PM 44.7058 -92.5822 113° Southeast  Level Estimated
06:09PM 44.7475 -92.9033 111° Southeast 290 334 9,200  Level Minneapolis Center
06:10PM 44.6612 -92.4229 125° Southeast  Level Estimated
06:10PM 44.7158 -92.7886 111° Southeast 312 359 11,000  Level Minneapolis Center
06:11PM 44.6164 -92.2639 117° Southeast  Level Estimated
06:11PM 44.6817 -92.6617 111° Southeast 344 396 13,200  Level Minneapolis Center
06:13PM 44.6381 -92.5128 112° Southeast 347 399 15,500 1,800 Climbing Minneapolis Center
06:14PM 44.5903 -92.3881 118° Southeast 368 423 17,000 1,200 Climbing Minneapolis Center
06:15PM 44.5511 -92.2858 118° Southeast 370 426 18,100 1,260 Climbing Minneapolis Center
06:16PM 44.4919 -92.1325 118° Southeast 373 429 19,700 1,320 Climbing Minneapolis Center
06:17PM 44.4406 -91.9981 118° Southeast 386 444 20,900 1,140 Climbing Minneapolis Center
06:18PM 44.3886 -91.8636 118° Southeast 392 451 22,100 1,140 Climbing Minneapolis Center
06:19PM 44.3261 -91.6983 118° Southeast 400 460 23,300 960 Climbing Minneapolis Center
06:20PM 44.2711 -91.5606 119° Southeast 405 466 24,200 780 Climbing Minneapolis Center
06:21PM 44.2167 -91.4189 118° Southeast 413 475 25,000 840 Climbing Minneapolis Center
06:22PM 44.1564 -91.2644 119° Southeast 419 482 26,000 840 Climbing Minneapolis Center
06:23PM 44.0994 -91.1189 119° Southeast 428 493 27,000 900 Climbing Minneapolis Center
06:24PM 44.0300 -90.9419 119° Southeast 435 501 28,100 960 Climbing Minneapolis Center
06:25PM 43.9703 -90.7931 119° Southeast 444 511 29,000 960 Climbing Minneapolis Center
06:26PM 43.9100 -90.6436 119° Southeast 446 513 30,200 1,080 Climbing Minneapolis Center
06:27PM 43.8431 -90.4731 119° Southeast 450 518 31,300 1,020 Climbing Minneapolis Center
06:28PM 43.7917 -90.3478 120° Southeast 449 517 32,300 780 Climbing Minneapolis Center
06:29PM 43.7192 -90.1739 120° Southeast 447 514 33,000 300 Climbing Minneapolis Center
06:30PM 43.6781 -90.0464 114° Southeast 442 509 33,000  Level Minneapolis Center
06:31PM 43.6442 -89.8250 102° East 440 506 33,000  Level Minneapolis Center
06:32PM 43.6167 -89.6617 103° East 439 505 33,000  Level Minneapolis Center
06:33PM 43.6003 -89.5808 106° East 438 504 33,000  Level Chicago Center
06:34PM 43.5714 -89.4164 104° East 440 506 33,000  Level Chicago Center
06:35PM 43.5417 -89.2525 104° East 440 506 33,000  Level Chicago Center
06:36PM 43.5058 -89.0628 105° East 440 506 33,000  Level Chicago Center
06:37PM 43.4761 -88.9008 104° East 439 505 33,000  Level Chicago Center
06:38PM 43.4456 -88.7386 104° East 439 505 33,000  Level Chicago Center
06:39PM 43.4119 -88.5606 105° East 438 504 33,000  Level Chicago Center
06:40PM 43.3794 -88.3958 105° East 439 505 33,000  Level Chicago Center
06:41PM 43.3497 -88.2372 104° East 437 503 33,000  Level Chicago Center
06:42PM 43.3189 -88.0775 105° East 435 501 33,000  Level Chicago Center
06:43PM 43.2889 -87.9175 104° East 434 499 33,000  Level Chicago Center
06:44PM 43.2511 -87.7283 105° East 438 504 33,000  Level Chicago Center
06:45PM 43.2186 -87.5672 105° East 439 505 33,000  Level Chicago Center
06:46PM 43.1872 -87.4064 105° East 438 504 33,000  Level Chicago Center
06:47PM 43.1536 -87.2408 105° East 437 503 33,000  Level Chicago Center
06:48PM 43.1214 -87.0819 105° East 435 501 33,000  Level Chicago Center
06:49PM 43.0886 -86.9242 106° East 435 501 33,000  Level Chicago Center
06:50PM 43.0569 -86.7653 105° East 435 501 33,000  Level Chicago Center
06:51PM 43.0167 -86.5742 106° East 438 504 33,000  Level Chicago Center
06:53PM 42.9839 -86.4150 106° East 438 504 33,000  Level Chicago Center
06:54PM 42.9511 -86.2592 106° East 433 498 33,000  Level Chicago Center
06:55PM 42.9167 -86.1047 107° East 434 499 33,000  Level Chicago Center
06:56PM 42.8775 -85.9142 106° East 439 505 33,000  Level Chicago Center
06:57PM 42.8433 -85.7597 107° East 440 506 33,000  Level Chicago Center
06:58PM 42.8094 -85.6025 106° East 438 504 33,000  Level Chicago Center
06:59PM 42.7692 -85.4456 109° East 444 511 33,000  Level Chicago Center
07:00PM 42.7169 -85.2964 115° Southeast 441 507 33,000  Level Chicago Center
07:01PM 42.6542 -85.1175 115° Southeast 439 505 33,000  Level Chicago Center
07:02PM 42.6000 -84.9675 116° Southeast 443 510 33,000  Level Chicago Center
07:03PM 42.5478 -84.8181 115° Southeast 441 507 33,000  Level Chicago Center
07:04PM 42.4933 -84.6678 116° Southeast 445 512 33,000  Level Chicago Center
07:05PM 42.4394 -84.5172 116° Southeast 445 512 33,000  Level Chicago Center
07:06PM 42.3736 -84.3469 118° Southeast 437 503 33,000  Level Cleveland Center
07:07PM 42.3178 -84.1975 117° Southeast 437 503 33,000  Level Cleveland Center
07:08PM 42.2583 -84.0314 116° Southeast 437 503 33,000  Level Cleveland Center
07:09PM 42.2044 -83.8825 116° Southeast 437 503 33,000  Level Cleveland Center
07:10PM 42.1481 -83.7339 117° Southeast 437 503 33,000  Level Cleveland Center
07:11PM 42.0894 -83.5856 118° Southeast 442 509 33,000  Level Cleveland Center
07:12PM 42.0369 -83.4406 116° Southeast 437 503 33,000  Level Cleveland Center
07:13PM 41.9631 -83.3031 126° Southeast 442 509 33,000  Level Cleveland Center
07:14PM 41.8933 -83.1661 124° Southeast 447 514 33,000  Level Cleveland Center
07:15PM 41.8211 -83.0325 126° Southeast 447 514 33,000  Level Cleveland Center
07:16PM 41.7508 -82.9017 126° Southeast 442 509 33,000  Level Cleveland Center
07:17PM 41.6678 -82.7819 133° Southeast 442 509 33,000  Level Cleveland Center
07:18PM 41.5803 -82.6761 138° Southeast 428 493 33,000  Level Cleveland Center
07:19PM 41.4986 -82.5736 137° Southeast 436 502 33,000  Level Cleveland Center
07:20PM 41.4108 -82.4658 137° Southeast 436 502 33,000  Level Cleveland Center
07:21PM 41.3186 -82.3581 139° Southeast 436 502 33,000  Level Cleveland Center
07:22PM 41.2306 -82.2508 138° Southeast 436 502 33,000  Level Cleveland Center
07:23PM 41.1425 -82.1408 137° Southeast 436 502 33,000  Level Cleveland Center
07:24PM 41.0522 -82.0342 138° Southeast 436 502 33,000  Level Cleveland Center
07:25PM 40.9639 -81.9278 138° Southeast 436 502 33,000  Level Cleveland Center
07:26PM 40.8714 -81.8214 139° Southeast 436 502 33,000  Level Cleveland Center
07:27PM 40.7828 -81.7128 137° Southeast 436 502 33,000  Level Cleveland Center
07:28PM 40.6942 -81.6072 138° Southeast 436 502 33,000  Level Cleveland Center
07:29PM 40.6056 -81.4992 137° Southeast 436 502 33,000  Level Cleveland Center
07:30PM 40.5247 -81.4081 139° Southeast 436 502 33,000  Level Cleveland Center
07:31PM 40.4214 -81.2786 136° Southeast 431 496 33,000  Level Cleveland Center
07:32PM 40.3325 -81.1767 139° Southeast 436 502 33,000  Level Cleveland Center
07:33PM 40.2453 -81.0753 138° Southeast 436 502 33,000  Level Cleveland Center
07:34PM 40.1583 -80.9714 138° Southeast 436 502 33,000  Level Cleveland Center
07:35PM 40.0689 -80.8706 139° Southeast 431 496 33,000  Level Cleveland Center
07:36PM 39.9836 -80.7647 136° Southeast 431 496 33,000  Level Cleveland Center
07:37PM 39.9025 -80.6533 133° Southeast 425 489 33,000  Level Cleveland Center
07:38PM 39.8211 -80.5397 133° Southeast 425 489 33,000  Level Cleveland Center
07:39PM 39.7419 -80.4292 133° Southeast 425 489 33,000  Level Cleveland Center
07:40PM 39.6603 -80.3189 134° Southeast 425 489 33,000 -120 Level Cleveland Center
07:41PM 39.5931 -80.2292 134° Southeast 423 487 32,800 -840 Descending Washington Center
07:42PM 39.5100 -80.1133 133° Southeast 423 487 31,400 -900 Descending Washington Center
07:43PM 39.4267 -80.0008 134° Southeast 423 487 31,000 -240 Descending Washington Center
07:44PM 39.3453 -79.8911 134° Southeast 423 487 31,000  Level Washington Center
07:45PM 39.2897 -79.7511 117° Southeast 423 487 31,000  Level Washington Center
07:46PM 39.2786 -79.5867 95° East 423 487 31,000 -120 Level Washington Center
07:47PM 39.2672 -79.4225 95° East 439 505 30,800 -1,380 Descending Washington Center
07:48PM 39.2500 -79.2394 97° East 451 519 28,300 -2,040 Descending Washington Center
07:49PM 39.2339 -79.0778 97° East 451 519 26,800 -1,380 Descending Washington Center
07:50PM 39.2197 -78.9217 97° East 451 519 25,600 -1,800 Descending Washington Center
07:51PM 39.2050 -78.7683 97° East 445 512 23,200 -2,340 Descending Washington Center
07:52PM 39.1900 -78.6178 97° East 434 499 21,000 -2,220 Descending Washington Center
07:53PM 39.1769 -78.4753 97° East 421 484 18,800 -2,100 Descending Washington Center
07:54PM 39.1572 -78.3328 100° East 410 472 16,800 -1,620 Descending Washington Center
07:55PM 39.1228 -78.2003 108° East 391 450 15,700 -1,080 Descending Washington Center
07:56PM 39.0900 -78.0708 108° East 384 442 14,700 -1,140 Descending Washington Center
07:57PM 39.0572 -77.9439 108° East 379 436 13,500 -1,260 Descending Washington Center
07:58PM 39.0281 -77.8281 108° East 379 436 12,200 -1,320 Descending Washington Center
07:59PM 38.9931 -77.6936 108° East 368 423 11,000 -1,140 Descending Washington Center
08:00PM 38.9575 -77.5697 110° East 362 417 10,000 -840 Descending Washington Center
08:00PM 38.9500 -77.5333 105° East 349 402 10,000 -2,100 Level Potomac TRACON
08:01PM 38.9667 -77.4333 78° East 300 345 7,400 -1,920 Descending Potomac TRACON
08:02PM 38.9667 -77.3333 90° East 280 322 6,200 -1,260 Descending Potomac TRACON
08:03PM 38.9667 -77.2333 90° East 258 297 4,900 -1,800 Descending Potomac TRACON
08:04PM 38.9667 -77.1500 90° East 205 236 2,600 -1,680 Descending Potomac TRACON
08:05PM 38.9333 -77.1167 142° Southeast 158 182 1,600 -1,020 Descending Potomac TRACON